Aérodrome :
LOGIN :

S'inscrire | Disclaimer

   EN    FR    IT 

 










Légende :    VFR   VFR Marginal   IFR   IFR Intensif   IFR Très Intensif
Visi : 
Plafond : 
>= 8 km
>= 3000ft
5 à 8 km
1000 à 3000 ft
1500m à 5 km
500 à 1000 ft
800 à 1500m
200 à 500 ft
< 800m
< 200 ft
Symboles :   Orages  Brouillard  Fortes neiges  Fortes précipitations  Vent > 20 kt
SIGMETs :   Divers  Orages  Givrage  Turbulence  Onde Orograph.  Cendres Volcan.






- Altitude de l'aérodrome : 284 ft


EGUW - RAF Wattisham

DERNIER METAR :
  • 271424Z 02005KT 2500 BR FEW001 BKN028 04/04 Q1017 TEMPO 5000 RMK YLO1 TEMPO WHT

METARs EXPIRÉS :
  • 271411Z 01005KT 1200 BR FEW001 BKN028 04/04 Q1018 TEMPO 3000 RMK AMB TEMPO YLO1
  • 271350Z 02005KT 3000 BR FEW002 BKN032 04/04 Q1018 BECMG 5000 RMK YLO1 BECMG WHT
  • 271250Z 03004KT 0600 FG BKN001 04/04 Q1018 BECMG 5000 BR SCT025 RMK RED BECMG WHT
  • 271150Z 36004KT 0300 FG BKN042 03/03 Q1019 BECMG 2000 BR BKN002 RMK RED BECMG AMB

TAF TAF EGUW
Valide du 27 à 15h jusqu'au 27 à 19h UTC


271330Z 2715/2719 02006KT 2000 BR BKN025
BECMG 2715/2718 8000
TEMPO 2716/2719 SCT022



MET'MAP, la Météo Aéronautique d'un coup d'oeil ! - Copyright ORBIFLY Décembre 2007 - Disclaimer

ORBIFLY MET'MAP TEAM :

Programmation & Développement : Alexandra Zaïnal
Sur une idée originale de : Baudouin d'Aumeries
Assistance à la programmation : Marc-Olivier Méhu
Soutien technique & logistique : Manuel Goepfert

Contact : metmap@orbifly.com




SOURCES & CREDITS :

   NOAA